createdAt,value
2019-01-16T00:00:31.581Z,417.45
2019-01-16T00:01:31.573Z,417.07
2019-01-16T00:02:31.551Z,418.43
2019-01-16T00:03:31.539Z,416.98
2019-01-16T00:04:31.551Z,417.83
2019-01-16T00:05:31.517Z,418.98
2019-01-16T00:06:31.493Z,416.37
2019-01-16T00:07:31.492Z,417.88
2019-01-16T00:08:31.476Z,418.61
2019-01-16T00:09:31.501Z,416.50
2019-01-16T00:10:31.477Z,416.57
2019-01-16T00:11:31.447Z,418.10
2019-01-16T00:12:31.427Z,416.43
2019-01-16T00:13:31.435Z,417.59
2019-01-16T00:14:31.435Z,419.44
2019-01-16T00:15:31.428Z,418.56
2019-01-16T00:16:31.399Z,416.17
2019-01-16T00:17:31.397Z,416.35
2019-01-16T00:18:31.356Z,416.97
2019-01-16T00:19:31.382Z,417.05
2019-01-16T00:20:31.352Z,417.90
2019-01-16T00:21:32.374Z,418.63
2019-01-16T00:22:31.320Z,416.72
2019-01-16T00:23:31.323Z,417.42
2019-01-16T00:24:31.340Z,416.80
2019-01-16T00:25:31.314Z,417.28
2019-01-16T00:26:31.294Z,416.13
2019-01-16T00:27:31.291Z,417.97
2019-01-16T00:28:31.266Z,417.85
2019-01-16T00:29:31.266Z,419.09
2019-01-16T00:30:31.244Z,417.84
2019-01-16T00:31:31.281Z,417.47
2019-01-16T00:32:31.220Z,419.17
2019-01-16T00:33:31.251Z,417.65
2019-01-16T00:34:31.226Z,416.30
2019-01-16T00:35:38.335Z,415.63
2019-01-16T00:36:31.165Z,416.35
2019-01-16T00:37:31.173Z,416.56
2019-01-16T00:38:31.161Z,419.36
2019-01-16T00:39:31.141Z,418.38
2019-01-16T00:40:38.787Z,416.51
2019-01-16T00:41:31.129Z,415.73
2019-01-16T00:42:38.217Z,415.96
2019-01-16T00:43:39.048Z,417.03
2019-01-16T00:44:31.112Z,417.16
2019-01-16T00:45:31.112Z,417.21
2019-01-16T00:46:31.092Z,418.07
2019-01-16T00:47:31.069Z,418.32
2019-01-16T00:48:31.042Z,417.55
2019-01-16T00:49:31.085Z,417.42
2019-01-16T00:50:31.028Z,416.34
2019-01-16T00:51:31.017Z,415.49
2019-01-16T00:52:31.000Z,417.68
2019-01-16T00:53:31.003Z,417.82
2019-01-16T00:54:31.012Z,418.19
2019-01-16T00:55:30.989Z,416.46
2019-01-16T00:56:30.987Z,417.34
2019-01-16T00:57:30.957Z,419.13
2019-01-16T00:58:30.942Z,416.57
2019-01-16T00:59:30.968Z,418.34
2019-01-16T01:00:30.937Z,418.50
2019-01-16T01:01:30.918Z,415.89
2019-01-16T01:02:30.912Z,418.44
2019-01-16T01:03:30.885Z,416.64
2019-01-16T01:04:30.882Z,418.34
2019-01-16T01:05:30.857Z,417.79
2019-01-16T01:06:30.847Z,416.33
2019-01-16T01:07:30.836Z,418.26
2019-01-16T01:08:30.830Z,418.28
2019-01-16T01:09:30.829Z,417.80
2019-01-16T01:10:30.801Z,417.99
2019-01-16T01:11:30.785Z,417.74
2019-01-16T01:12:30.873Z,418.37
2019-01-16T01:13:30.787Z,417.46
2019-01-16T01:14:30.794Z,417.71
2019-01-16T01:15:30.761Z,418.88
2019-01-16T01:16:30.744Z,418.12
2019-01-16T01:17:30.740Z,417.47
2019-01-16T01:18:32.380Z,418.13
2019-01-16T01:19:30.702Z,418.96
2019-01-16T01:20:30.715Z,416.88
2019-01-16T01:21:30.702Z,417.18
2019-01-16T01:22:30.687Z,417.38
2019-01-16T01:23:30.671Z,418.99
2019-01-16T01:24:30.661Z,417.60
2019-01-16T01:25:30.661Z,418.83
2019-01-16T01:26:30.634Z,418.97
2019-01-16T01:27:30.650Z,418.59
2019-01-16T01:28:30.629Z,417.91
2019-01-16T01:29:30.617Z,415.38
2019-01-16T01:30:30.628Z,418.53
2019-01-16T01:31:30.584Z,418.35
2019-01-16T01:32:30.565Z,418.53
2019-01-16T01:33:30.566Z,417.50
2019-01-16T01:34:30.564Z,417.92
2019-01-16T01:35:30.570Z,418.28
2019-01-16T01:36:30.518Z,417.33
2019-01-16T01:37:30.542Z,417.16
2019-01-16T01:38:30.506Z,417.62
2019-01-16T01:39:30.504Z,417.01
2019-01-16T01:40:30.504Z,417.39
2019-01-16T01:41:30.470Z,417.61
2019-01-16T01:42:30.473Z,418.67
2019-01-16T01:43:30.439Z,418.96
2019-01-16T01:44:30.459Z,416.22
2019-01-16T01:45:30.446Z,417.50
2019-01-16T01:46:30.449Z,417.30
2019-01-16T01:47:30.455Z,417.60
2019-01-16T01:48:30.387Z,418.61
2019-01-16T01:49:30.386Z,418.26
2019-01-16T01:50:30.415Z,418.23
2019-01-16T01:51:30.382Z,418.06
2019-01-16T01:52:30.363Z,417.35
2019-01-16T01:53:30.359Z,418.90
2019-01-16T01:54:30.361Z,416.90
2019-01-16T01:55:30.352Z,416.64
2019-01-16T01:56:30.321Z,417.20
2019-01-16T01:57:30.321Z,417.24
2019-01-16T01:58:30.300Z,419.48
2019-01-16T01:59:30.287Z,417.70
2019-01-16T02:00:30.314Z,417.00
2019-01-16T02:01:30.340Z,416.82
2019-01-16T02:02:30.257Z,419.44
2019-01-16T02:03:30.282Z,418.14
2019-01-16T02:04:30.243Z,419.01
2019-01-16T02:05:30.267Z,418.00
2019-01-16T02:06:30.220Z,417.93
2019-01-16T02:07:30.189Z,417.88
2019-01-16T02:08:30.188Z,418.80
2019-01-16T02:09:30.184Z,416.81
2019-01-16T02:10:30.195Z,419.55
2019-01-16T02:11:30.155Z,417.63
2019-01-16T02:12:30.213Z,416.70
2019-01-16T02:13:30.130Z,417.21
2019-01-16T02:14:30.148Z,417.42
2019-01-16T02:15:30.141Z,418.56
2019-01-16T02:16:30.125Z,417.59
2019-01-16T02:17:30.085Z,419.37
2019-01-16T02:18:30.080Z,417.93
2019-01-16T02:19:30.063Z,418.31
2019-01-16T02:20:30.085Z,417.79
2019-01-16T02:21:30.038Z,419.70
2019-01-16T02:22:30.065Z,417.86
2019-01-16T02:23:30.019Z,418.57
2019-01-16T02:24:30.006Z,418.54
2019-01-16T02:25:30.036Z,419.86
2019-01-16T02:26:29.996Z,418.30
2019-01-16T02:27:30.005Z,418.08
2019-01-16T02:28:29.981Z,418.12
2019-01-16T02:29:29.947Z,417.93
2019-01-16T02:30:29.970Z,417.49
2019-01-16T02:31:29.934Z,419.36
2019-01-16T02:32:29.933Z,417.62
2019-01-16T02:33:29.946Z,418.28
2019-01-16T02:34:29.921Z,417.69
2019-01-16T02:35:29.926Z,419.72
2019-01-16T02:36:38.545Z,418.71
2019-01-16T02:37:37.923Z,417.95
2019-01-16T02:38:29.880Z,418.46
2019-01-16T02:39:29.870Z,417.68
2019-01-16T02:40:29.919Z,417.67
2019-01-16T02:41:29.819Z,417.95
2019-01-16T02:42:29.803Z,419.26
2019-01-16T02:43:29.795Z,416.88
2019-01-16T02:44:29.787Z,417.36
2019-01-16T02:45:29.803Z,417.71
2019-01-16T02:46:29.763Z,416.39
2019-01-16T02:47:29.749Z,418.56
2019-01-16T02:48:29.749Z,417.08
2019-01-16T02:49:29.748Z,417.69
2019-01-16T02:50:29.748Z,417.56
2019-01-16T02:51:29.735Z,419.19
2019-01-16T02:52:29.716Z,418.49
2019-01-16T02:53:29.709Z,416.55
2019-01-16T02:54:29.696Z,417.39
2019-01-16T02:55:29.694Z,418.88
2019-01-16T02:56:29.671Z,417.22
2019-01-16T02:57:29.673Z,418.34
2019-01-16T02:58:29.660Z,418.03
2019-01-16T02:59:29.624Z,417.48
2019-01-16T03:00:29.649Z,417.48
2019-01-16T03:01:29.628Z,418.02
2019-01-16T03:02:29.636Z,416.99
2019-01-16T03:03:29.625Z,418.54
2019-01-16T03:04:29.585Z,419.43
2019-01-16T03:05:29.593Z,417.56
2019-01-16T03:06:29.576Z,418.39
2019-01-16T03:07:29.598Z,418.33
2019-01-16T03:08:29.543Z,417.50
2019-01-16T03:09:29.531Z,418.79
2019-01-16T03:10:29.530Z,418.02
2019-01-16T03:11:29.497Z,417.32
2019-01-16T03:12:29.497Z,419.35
2019-01-16T03:13:29.517Z,417.70
2019-01-16T03:14:29.503Z,418.46
2019-01-16T03:15:29.475Z,417.80
2019-01-16T03:16:29.457Z,418.84
2019-01-16T03:17:29.439Z,417.25
2019-01-16T03:18:29.433Z,416.67
2019-01-16T03:19:29.422Z,417.52
2019-01-16T03:20:29.482Z,416.95
2019-01-16T03:21:29.407Z,417.07
2019-01-16T03:22:29.396Z,416.51
2019-01-16T03:23:29.371Z,419.84
2019-01-16T03:24:29.392Z,417.30
2019-01-16T03:25:29.359Z,416.75
2019-01-16T03:26:29.367Z,419.15
2019-01-16T03:27:29.331Z,419.54
2019-01-16T03:28:29.323Z,415.24
2019-01-16T03:29:29.313Z,418.57
2019-01-16T03:30:29.369Z,420.45
2019-01-16T03:31:29.319Z,418.68
2019-01-16T03:32:29.283Z,417.87
2019-01-16T03:33:29.274Z,418.34
2019-01-16T03:34:29.285Z,416.65
2019-01-16T03:35:29.298Z,419.01
2019-01-16T03:36:29.273Z,418.47
2019-01-16T03:37:29.249Z,415.08
2019-01-16T03:38:29.218Z,418.28
2019-01-16T03:39:29.208Z,420.09
2019-01-16T03:40:29.203Z,419.49
2019-01-16T03:41:29.198Z,418.07
2019-01-16T03:42:29.188Z,419.04
2019-01-16T03:43:29.170Z,418.94
2019-01-16T03:44:29.151Z,415.44
2019-01-16T03:45:29.144Z,415.82
2019-01-16T03:46:29.158Z,418.36
2019-01-16T03:47:29.125Z,419.35
2019-01-16T03:48:29.105Z,416.00
2019-01-16T03:49:29.117Z,418.15
2019-01-16T03:50:29.083Z,417.77
2019-01-16T03:51:29.582Z,416.85
2019-01-16T03:52:29.085Z,416.44
2019-01-16T03:53:29.085Z,417.28
2019-01-16T03:54:29.077Z,416.40
2019-01-16T03:55:29.036Z,416.51
2019-01-16T03:56:29.083Z,418.80
2019-01-16T03:57:29.015Z,419.77
2019-01-16T03:58:29.016Z,419.42
2019-01-16T03:59:29.021Z,416.77
2019-01-16T04:00:29.568Z,415.35
2019-01-16T04:01:28.989Z,418.63
2019-01-16T04:02:28.956Z,419.06
2019-01-16T04:03:28.989Z,418.77
2019-01-16T04:04:28.953Z,416.96
2019-01-16T04:05:28.944Z,416.17
2019-01-16T04:06:28.967Z,416.88
2019-01-16T04:07:29.577Z,416.20
2019-01-16T04:08:29.549Z,417.40
2019-01-16T04:09:28.922Z,416.40
2019-01-16T04:10:28.884Z,418.74
2019-01-16T04:11:29.095Z,417.03
2019-01-16T04:12:28.841Z,418.71
2019-01-16T04:13:28.830Z,416.59
2019-01-16T04:14:28.827Z,419.86
2019-01-16T04:15:28.825Z,419.52
2019-01-16T04:16:28.826Z,417.61
2019-01-16T04:17:28.793Z,418.26
2019-01-16T04:18:28.790Z,419.07
2019-01-16T04:19:28.762Z,415.57
2019-01-16T04:20:28.766Z,415.69
2019-01-16T04:21:28.772Z,419.96
2019-01-16T04:22:28.756Z,416.43
2019-01-16T04:23:28.739Z,419.21
2019-01-16T04:24:28.714Z,418.71
2019-01-16T04:25:28.713Z,416.00
2019-01-16T04:26:35.859Z,419.53
2019-01-16T04:27:28.697Z,416.96
2019-01-16T04:28:28.695Z,416.63
2019-01-16T04:29:28.660Z,416.24
2019-01-16T04:30:28.662Z,417.69
2019-01-16T04:31:28.658Z,419.63
2019-01-16T04:32:28.725Z,419.45
2019-01-16T04:33:28.623Z,417.19
2019-01-16T04:34:28.621Z,418.27
2019-01-16T04:35:28.612Z,417.17
2019-01-16T04:36:28.618Z,418.75
2019-01-16T04:37:28.581Z,419.38
2019-01-16T04:38:28.578Z,417.53
2019-01-16T04:39:28.567Z,417.81
2019-01-16T04:40:28.556Z,419.69
2019-01-16T04:41:28.562Z,419.58
2019-01-16T04:42:28.523Z,418.03
2019-01-16T04:43:28.520Z,417.44
2019-01-16T04:44:28.521Z,417.67
2019-01-16T04:45:28.506Z,418.34
2019-01-16T04:46:28.529Z,419.55
2019-01-16T04:47:28.473Z,419.43
2019-01-16T04:48:28.451Z,419.33
2019-01-16T04:49:30.544Z,418.92
2019-01-16T04:50:28.450Z,419.61
2019-01-16T04:51:28.456Z,419.83
2019-01-16T04:52:28.437Z,418.05
2019-01-16T04:53:36.485Z,418.56
2019-01-16T04:54:28.421Z,416.77
2019-01-16T04:55:36.066Z,419.93
2019-01-16T04:56:28.404Z,419.68
2019-01-16T04:57:28.371Z,417.03
2019-01-16T04:58:28.373Z,418.88
2019-01-16T04:59:28.336Z,418.92
2019-01-16T05:00:28.336Z,418.53
2019-01-16T05:01:28.328Z,418.61
2019-01-16T05:02:28.310Z,416.64
2019-01-16T05:03:28.310Z,418.49
2019-01-16T05:04:28.291Z,418.21
2019-01-16T05:05:28.307Z,417.85
2019-01-16T05:06:28.291Z,418.13
2019-01-16T05:07:28.285Z,418.93
2019-01-16T05:08:28.247Z,419.26
2019-01-16T05:09:28.257Z,418.63
2019-01-16T05:10:28.225Z,418.83
2019-01-16T05:11:28.223Z,419.15
2019-01-16T05:12:29.431Z,417.02
2019-01-16T05:13:28.213Z,419.11
2019-01-16T05:14:29.111Z,418.27
2019-01-16T05:15:28.207Z,418.79
2019-01-16T05:16:28.192Z,417.44
2019-01-16T05:17:28.155Z,417.53
2019-01-16T05:18:28.159Z,419.05
2019-01-16T05:19:28.192Z,418.05
2019-01-16T05:20:28.135Z,417.94
2019-01-16T05:21:28.142Z,418.72
2019-01-16T05:22:28.132Z,418.26
2019-01-16T05:23:28.115Z,418.38
2019-01-16T05:24:28.079Z,418.16
2019-01-16T05:25:28.092Z,418.21
2019-01-16T05:26:28.144Z,418.05
2019-01-16T05:27:28.076Z,418.54
2019-01-16T05:28:28.047Z,418.64
2019-01-16T05:29:28.023Z,418.34
2019-01-16T05:30:28.018Z,418.76
2019-01-16T05:31:28.000Z,418.65
2019-01-16T05:32:28.001Z,419.49
2019-01-16T05:33:27.984Z,419.75
2019-01-16T05:34:27.987Z,419.08
2019-01-16T05:35:27.976Z,420.56
2019-01-16T05:36:27.957Z,419.55
2019-01-16T05:37:28.206Z,419.14
2019-01-16T05:38:27.942Z,419.38
2019-01-16T05:39:27.922Z,418.59
2019-01-16T05:40:27.899Z,419.95
2019-01-16T05:41:27.913Z,419.40
2019-01-16T05:42:27.904Z,419.87
2019-01-16T05:43:27.874Z,419.63
2019-01-16T05:44:27.898Z,419.31
2019-01-16T05:45:27.854Z,420.44
2019-01-16T05:46:27.845Z,419.83
2019-01-16T05:47:27.856Z,418.38
2019-01-16T05:48:27.839Z,420.14
2019-01-16T05:49:27.827Z,418.85
2019-01-16T05:50:27.810Z,419.58
2019-01-16T05:51:27.821Z,419.09
2019-01-16T05:52:27.819Z,418.45
2019-01-16T05:53:27.755Z,419.83
2019-01-16T05:54:27.760Z,419.56
2019-01-16T05:55:27.751Z,419.30
2019-01-16T05:56:35.702Z,419.86
2019-01-16T05:57:28.188Z,418.36
2019-01-16T05:58:27.699Z,419.73
2019-01-16T05:59:27.696Z,419.37
2019-01-16T06:00:27.694Z,418.97
2019-01-16T06:01:27.690Z,419.03
2019-01-16T06:02:27.678Z,420.08
2019-01-16T06:03:27.665Z,418.22
2019-01-16T06:04:27.650Z,419.16
2019-01-16T06:05:27.640Z,419.54
2019-01-16T06:06:27.623Z,419.35
2019-01-16T06:07:27.632Z,419.62
2019-01-16T06:08:27.618Z,420.45
2019-01-16T06:09:27.614Z,419.78
2019-01-16T06:10:27.595Z,419.13
2019-01-16T06:11:28.162Z,420.62
2019-01-16T06:12:27.584Z,419.09
2019-01-16T06:13:27.571Z,419.10
2019-01-16T06:14:27.550Z,420.47
2019-01-16T06:15:27.526Z,419.85
2019-01-16T06:16:27.524Z,419.35
2019-01-16T06:17:27.552Z,419.62
2019-01-16T06:18:27.503Z,419.67
2019-01-16T06:19:27.477Z,420.43
2019-01-16T06:20:27.480Z,420.18
2019-01-16T06:21:27.475Z,419.37
2019-01-16T06:22:27.474Z,420.34
2019-01-16T06:23:27.470Z,420.41
2019-01-16T06:24:27.438Z,420.24
2019-01-16T06:25:27.476Z,421.93
2019-01-16T06:26:27.407Z,420.50
2019-01-16T06:27:27.411Z,421.17
2019-01-16T06:28:27.383Z,420.80
2019-01-16T06:29:27.368Z,419.64
2019-01-16T06:30:27.361Z,421.56
2019-01-16T06:31:27.356Z,419.17
2019-01-16T06:32:27.351Z,419.82
2019-01-16T06:33:27.344Z,419.33
2019-01-16T06:34:27.333Z,420.66
2019-01-16T06:35:27.318Z,420.07
2019-01-16T06:36:27.319Z,419.12
2019-01-16T06:37:27.341Z,419.28
2019-01-16T06:38:27.287Z,420.79
2019-01-16T06:39:27.285Z,419.83
2019-01-16T06:40:27.298Z,419.54
2019-01-16T06:41:27.275Z,419.70
2019-01-16T06:42:27.303Z,420.11
2019-01-16T06:43:27.233Z,420.61
2019-01-16T06:44:27.242Z,420.40
2019-01-16T06:45:27.236Z,419.63
2019-01-16T06:46:27.217Z,419.96
2019-01-16T06:47:27.220Z,419.88
2019-01-16T06:48:27.184Z,419.87
2019-01-16T06:49:27.177Z,418.55
2019-01-16T06:50:27.174Z,418.58
2019-01-16T06:51:27.145Z,419.07
2019-01-16T06:52:27.165Z,419.40
2019-01-16T06:53:27.128Z,419.64
2019-01-16T06:54:27.126Z,418.20
2019-01-16T06:55:27.094Z,419.95
2019-01-16T06:56:27.101Z,420.03
2019-01-16T06:57:27.113Z,420.94
2019-01-16T06:58:27.074Z,419.83
2019-01-16T06:59:27.078Z,417.79
2019-01-16T07:00:27.059Z,418.44
2019-01-16T07:01:27.027Z,418.71
2019-01-16T07:02:27.043Z,418.56
2019-01-16T07:03:27.029Z,419.88
2019-01-16T07:04:27.013Z,419.73
2019-01-16T07:05:27.026Z,420.23
2019-01-16T07:06:26.983Z,418.79
2019-01-16T07:07:26.995Z,420.63
2019-01-16T07:08:26.975Z,421.18
2019-01-16T07:09:26.962Z,420.22
2019-01-16T07:10:26.925Z,418.28
2019-01-16T07:11:26.954Z,420.02
2019-01-16T07:12:26.943Z,420.48
2019-01-16T07:13:26.911Z,420.51
2019-01-16T07:14:26.918Z,419.58
2019-01-16T07:15:26.885Z,419.97
2019-01-16T07:16:26.869Z,420.55
2019-01-16T07:17:26.893Z,420.48
2019-01-16T07:18:26.864Z,420.20
2019-01-16T07:19:26.837Z,420.23
2019-01-16T07:20:26.858Z,420.42
2019-01-16T07:21:35.418Z,421.10
2019-01-16T07:22:27.266Z,421.02
2019-01-16T07:23:26.804Z,420.17
2019-01-16T07:24:26.808Z,420.65
2019-01-16T07:25:35.357Z,418.38
2019-01-16T07:26:26.794Z,419.93
2019-01-16T07:27:26.786Z,420.13
2019-01-16T07:28:33.870Z,420.30
2019-01-16T07:29:26.773Z,420.28
2019-01-16T07:30:26.812Z,419.89
2019-01-16T07:31:26.755Z,419.80
2019-01-16T07:32:26.773Z,419.52
2019-01-16T07:33:26.696Z,419.36
2019-01-16T07:34:26.698Z,420.38
2019-01-16T07:35:26.724Z,420.78
2019-01-16T07:36:26.685Z,418.34
2019-01-16T07:37:26.654Z,420.15
2019-01-16T07:38:26.673Z,419.74
2019-01-16T07:39:26.638Z,419.75
2019-01-16T07:40:26.631Z,420.45
2019-01-16T07:41:26.598Z,420.88
2019-01-16T07:42:26.584Z,421.45
2019-01-16T07:43:26.605Z,420.43
2019-01-16T07:44:26.578Z,420.22
2019-01-16T07:45:26.581Z,420.95
2019-01-16T07:46:26.574Z,421.04
2019-01-16T07:47:26.538Z,419.13
2019-01-16T07:48:33.647Z,419.60
2019-01-16T07:49:34.625Z,420.98
2019-01-16T07:50:26.526Z,420.67
2019-01-16T07:51:26.509Z,419.92
2019-01-16T07:52:26.482Z,419.75
2019-01-16T07:53:26.494Z,420.70
2019-01-16T07:54:26.463Z,421.27
2019-01-16T07:55:26.457Z,421.33
2019-01-16T07:56:26.454Z,420.53
2019-01-16T07:57:26.429Z,420.56
2019-01-16T07:58:26.446Z,421.21
2019-01-16T07:59:26.413Z,420.78
2019-01-16T08:00:26.404Z,420.54
2019-01-16T08:01:26.385Z,419.27
2019-01-16T08:02:26.382Z,419.82
2019-01-16T08:03:26.390Z,420.88
2019-01-16T08:04:26.348Z,420.81
2019-01-16T08:05:26.352Z,421.01
2019-01-16T08:06:26.420Z,420.79
2019-01-16T08:07:26.339Z,420.86
2019-01-16T08:08:26.346Z,420.12
2019-01-16T08:09:26.368Z,420.37
2019-01-16T08:10:26.351Z,420.32
2019-01-16T08:11:26.283Z,420.78
2019-01-16T08:12:33.451Z,420.49
2019-01-16T08:13:26.290Z,420.17
2019-01-16T08:14:26.272Z,420.76
2019-01-16T08:15:26.286Z,419.36
2019-01-16T08:16:26.238Z,420.11
2019-01-16T08:17:26.200Z,420.75
2019-01-16T08:18:34.456Z,420.51
2019-01-16T08:19:26.232Z,421.22
2019-01-16T08:20:33.312Z,418.03
2019-01-16T08:21:34.859Z,420.78
2019-01-16T08:23:45.183Z,418.65
2019-01-16T08:24:52.726Z,419.73
2019-01-16T08:25:44.743Z,421.15
2019-01-16T08:26:45.497Z,420.23
2019-01-16T08:27:44.708Z,420.64
2019-01-16T08:28:44.716Z,421.12
2019-01-16T08:29:44.676Z,420.74
2019-01-16T08:30:44.674Z,421.58
2019-01-16T08:31:44.655Z,421.41
2019-01-16T08:32:44.659Z,421.07
2019-01-16T08:33:44.651Z,420.40
2019-01-16T08:34:44.623Z,421.15
2019-01-16T08:35:44.632Z,420.74
2019-01-16T08:36:44.648Z,420.83
2019-01-16T08:37:44.588Z,421.59
2019-01-16T08:38:44.607Z,420.82
2019-01-16T08:39:44.581Z,421.54
2019-01-16T08:40:44.552Z,421.91
2019-01-16T08:41:44.556Z,421.09
2019-01-16T08:42:44.560Z,420.27
2019-01-16T08:43:52.706Z,420.00
2019-01-16T08:44:53.366Z,420.39
2019-01-16T08:45:44.536Z,420.37
2019-01-16T08:46:44.544Z,420.87
2019-01-16T08:47:44.481Z,420.87
2019-01-16T08:48:44.531Z,421.46
2019-01-16T08:49:44.454Z,418.61
2019-01-16T08:50:44.474Z,418.68
2019-01-16T08:51:44.455Z,421.08
2019-01-16T08:52:44.423Z,421.49
2019-01-16T08:53:44.711Z,421.15
2019-01-16T08:54:44.409Z,421.13
2019-01-16T08:55:44.407Z,418.84
2019-01-16T08:56:44.430Z,420.62
2019-01-16T08:57:44.427Z,420.00
2019-01-16T08:58:44.398Z,419.99
2019-01-16T08:59:44.373Z,420.25
2019-01-16T09:00:44.388Z,419.60
2019-01-16T09:01:44.371Z,420.26
2019-01-16T09:02:44.345Z,418.85
2019-01-16T09:03:44.343Z,420.80
2019-01-16T09:04:44.311Z,419.29
2019-01-16T09:05:44.303Z,420.35
2019-01-16T09:06:44.300Z,420.65
2019-01-16T09:07:44.307Z,421.11
2019-01-16T09:08:44.312Z,421.88
2019-01-16T09:09:44.268Z,421.45
2019-01-16T09:10:44.263Z,421.32
2019-01-16T09:11:44.251Z,422.02
2019-01-16T09:12:44.232Z,421.27
2019-01-16T09:13:44.229Z,421.53
2019-01-16T09:14:44.219Z,421.48
2019-01-16T09:15:44.193Z,419.67
2019-01-16T09:16:44.198Z,419.01
2019-01-16T09:17:44.165Z,419.48
2019-01-16T09:18:44.199Z,420.89
2019-01-16T09:19:44.135Z,421.60
2019-01-16T09:20:44.131Z,421.92
2019-01-16T09:21:44.135Z,421.29
2019-01-16T09:22:45.051Z,421.32
2019-01-16T09:23:44.134Z,419.92
2019-01-16T09:24:44.118Z,420.76
2019-01-16T09:25:44.097Z,420.74
2019-01-16T09:26:44.075Z,421.03
2019-01-16T09:27:44.079Z,421.86
2019-01-16T09:28:44.086Z,421.46
2019-01-16T09:29:44.049Z,420.31
2019-01-16T09:30:44.029Z,420.53
2019-01-16T09:31:44.031Z,420.63
2019-01-16T09:32:44.033Z,421.54
2019-01-16T09:33:44.037Z,421.11
2019-01-16T09:34:43.991Z,420.67
2019-01-16T09:35:44.033Z,421.17
2019-01-16T09:36:43.987Z,421.91
2019-01-16T09:37:43.967Z,420.99
2019-01-16T09:38:43.979Z,420.59
2019-01-16T09:39:43.933Z,420.96
2019-01-16T09:40:43.938Z,421.63
2019-01-16T09:41:43.943Z,420.22
2019-01-16T09:42:43.922Z,420.92
2019-01-16T09:43:44.823Z,420.82
2019-01-16T09:44:43.873Z,421.40
2019-01-16T09:45:43.866Z,420.86
2019-01-16T09:46:43.867Z,421.27
2019-01-16T09:47:43.881Z,421.17
2019-01-16T09:48:43.901Z,421.89
2019-01-16T09:49:43.844Z,421.99
2019-01-16T09:50:47.836Z,419.87
2019-01-16T09:51:43.819Z,420.01
2019-01-16T09:52:43.825Z,421.42
2019-01-16T09:53:43.813Z,418.84
2019-01-16T09:54:43.801Z,421.89
2019-01-16T09:55:43.765Z,421.44
2019-01-16T09:56:43.773Z,421.17
2019-01-16T09:57:43.743Z,420.60
2019-01-16T09:58:43.746Z,421.39
2019-01-16T09:59:43.747Z,421.32
2019-01-16T10:00:43.718Z,421.22
2019-01-16T10:01:43.719Z,421.02
2019-01-16T10:02:43.704Z,419.88
2019-01-16T10:03:43.728Z,421.82
2019-01-16T10:04:51.271Z,422.11
2019-01-16T10:05:51.816Z,420.36
2019-01-16T10:06:51.838Z,421.90
2019-01-16T10:07:43.666Z,421.25
2019-01-16T10:08:43.714Z,420.93
2019-01-16T10:09:43.644Z,422.64
2019-01-16T10:10:43.657Z,421.86
2019-01-16T10:11:43.623Z,422.16
2019-01-16T10:12:43.591Z,421.31
2019-01-16T10:13:43.613Z,421.92
2019-01-16T10:14:43.557Z,421.58
2019-01-16T10:15:43.573Z,420.49
2019-01-16T10:16:44.277Z,421.17
2019-01-16T10:17:43.559Z,419.34
2019-01-16T10:18:43.579Z,419.96
2019-01-16T10:19:43.509Z,420.98
2019-01-16T10:20:46.316Z,419.65
2019-01-16T10:21:43.508Z,420.02
2019-01-16T10:22:43.493Z,420.98
2019-01-16T10:23:43.510Z,420.42
2019-01-16T10:24:43.493Z,419.30
2019-01-16T10:25:43.469Z,420.51
2019-01-16T10:26:43.469Z,421.03
2019-01-16T10:27:43.491Z,419.97
2019-01-16T10:28:43.440Z,420.34
2019-01-16T10:29:43.450Z,420.36
2019-01-16T10:30:43.409Z,421.55
2019-01-16T10:31:43.394Z,421.70
2019-01-16T10:32:43.390Z,421.42
2019-01-16T10:33:43.401Z,421.30
2019-01-16T10:34:43.402Z,420.23
2019-01-16T10:35:43.372Z,421.88
2019-01-16T10:36:43.338Z,419.90
2019-01-16T10:37:43.339Z,421.18
2019-01-16T10:38:43.329Z,421.09
2019-01-16T10:39:43.312Z,421.55
2019-01-16T10:40:51.342Z,420.51
2019-01-16T10:41:50.447Z,420.05
2019-01-16T10:42:51.379Z,419.03
2019-01-16T10:43:43.315Z,421.27
2019-01-16T10:44:43.324Z,419.76
2019-01-16T10:45:43.297Z,420.05
2019-01-16T10:46:43.216Z,421.27
2019-01-16T10:47:50.817Z,420.44
2019-01-16T10:48:49.648Z,421.01
2019-01-16T10:49:44.289Z,419.85
2019-01-16T10:50:43.173Z,420.36
2019-01-16T10:51:43.183Z,419.72
2019-01-16T10:52:43.167Z,420.90
2019-01-16T10:53:43.188Z,421.58
2019-01-16T10:54:43.215Z,420.86
2019-01-16T10:55:43.132Z,421.21
2019-01-16T10:56:43.913Z,421.06
2019-01-16T10:57:43.149Z,420.58
2019-01-16T10:58:43.145Z,420.37
2019-01-16T10:59:43.120Z,419.90
2019-01-16T11:00:43.107Z,420.35
2019-01-16T11:01:43.062Z,420.72
2019-01-16T11:02:43.891Z,420.54
2019-01-16T11:03:43.079Z,419.65
2019-01-16T11:04:43.066Z,420.30
2019-01-16T11:05:43.040Z,420.80
2019-01-16T11:06:43.029Z,421.10
2019-01-16T11:07:43.029Z,419.96
2019-01-16T11:08:42.999Z,421.23
2019-01-16T11:09:43.022Z,420.87
2019-01-16T11:10:42.986Z,420.70
2019-01-16T11:11:42.981Z,420.27
2019-01-16T11:12:42.957Z,421.20
2019-01-16T11:13:42.949Z,421.08
2019-01-16T11:14:42.959Z,420.11
2019-01-16T11:15:42.941Z,420.28
2019-01-16T11:16:42.936Z,419.89
2019-01-16T11:17:42.902Z,421.18
2019-01-16T11:18:42.919Z,420.29
2019-01-16T11:19:42.959Z,421.53
2019-01-16T11:20:42.874Z,420.90
2019-01-16T11:21:42.874Z,420.20
2019-01-16T11:22:42.873Z,420.32
2019-01-16T11:23:42.826Z,420.52
2019-01-16T11:24:42.855Z,420.95
2019-01-16T11:25:42.840Z,421.26
2019-01-16T11:26:42.829Z,419.74
2019-01-16T11:27:42.802Z,419.68
2019-01-16T11:28:42.815Z,420.55
2019-01-16T11:29:42.811Z,420.64
2019-01-16T11:30:42.799Z,420.74
2019-01-16T11:31:42.754Z,419.96
2019-01-16T11:32:42.790Z,420.19
2019-01-16T11:33:42.768Z,421.54
2019-01-16T11:34:42.784Z,420.57
2019-01-16T11:35:44.491Z,420.86
2019-01-16T11:36:42.723Z,421.09
2019-01-16T11:37:43.409Z,421.32
2019-01-16T11:38:42.746Z,421.06
2019-01-16T11:39:42.925Z,420.48
2019-01-16T11:40:42.696Z,420.54
2019-01-16T11:41:42.686Z,420.10
2019-01-16T11:42:42.721Z,420.50
2019-01-16T11:43:42.647Z,419.57
2019-01-16T11:44:42.640Z,420.71
2019-01-16T11:45:42.637Z,420.82
2019-01-16T11:46:42.590Z,421.55
2019-01-16T11:47:42.595Z,419.98
2019-01-16T11:48:42.566Z,420.13
2019-01-16T11:49:42.599Z,421.61
2019-01-16T11:50:42.556Z,420.94
2019-01-16T11:51:42.556Z,420.33
2019-01-16T11:52:42.516Z,421.63
2019-01-16T11:53:42.513Z,421.35
2019-01-16T11:54:42.517Z,421.98
2019-01-16T11:55:42.494Z,420.43
2019-01-16T11:56:42.496Z,420.94
2019-01-16T11:57:42.475Z,420.64
2019-01-16T11:58:42.487Z,419.80
2019-01-16T11:59:42.447Z,419.88
2019-01-16T12:00:42.431Z,421.29
2019-01-16T12:01:42.444Z,420.60
2019-01-16T12:02:42.407Z,420.06
2019-01-16T12:03:42.402Z,421.35
2019-01-16T12:04:42.446Z,421.32
2019-01-16T12:05:42.387Z,421.18
2019-01-16T12:06:42.370Z,420.72
2019-01-16T12:07:51.495Z,419.95
2019-01-16T12:08:50.482Z,421.37
2019-01-16T12:09:50.560Z,420.88
2019-01-16T12:10:49.446Z,420.15
2019-01-16T12:11:49.410Z,420.63
2019-01-16T12:12:50.726Z,420.88
2019-01-16T12:13:50.467Z,420.36
2019-01-16T12:14:50.925Z,420.48
2019-01-16T12:15:50.628Z,421.06
2019-01-16T12:16:50.750Z,420.28
2019-01-16T12:17:49.698Z,419.44
2019-01-16T12:18:42.438Z,420.52
2019-01-16T12:19:42.334Z,420.85
2019-01-16T12:20:42.368Z,421.02
2019-01-16T12:21:43.636Z,420.60
2019-01-16T12:22:42.226Z,419.77
2019-01-16T12:23:43.139Z,420.11
2019-01-16T12:24:42.225Z,420.79
2019-01-16T12:25:42.215Z,421.21
2019-01-16T12:26:42.217Z,419.49
2019-01-16T12:27:42.173Z,420.14
2019-01-16T12:28:42.141Z,421.19
2019-01-16T12:29:42.239Z,420.00